createdAt,value
2018-12-07T00:01:50.106Z,95.70
2018-12-07T00:04:18.325Z,95.80
2018-12-07T00:06:46.494Z,95.70
2018-12-07T00:09:14.806Z,95.70
2018-12-07T00:11:43.062Z,95.70
2018-12-07T00:14:11.332Z,95.60
2018-12-07T00:16:40.772Z,95.50
2018-12-07T00:19:09.004Z,95.60
2018-12-07T00:21:37.178Z,95.50
2018-12-07T00:24:05.385Z,95.40
2018-12-07T00:26:33.625Z,95.50
2018-12-07T00:29:01.805Z,95.50
2018-12-07T00:31:30.265Z,95.50
2018-12-07T00:33:58.449Z,95.50
2018-12-07T00:36:26.622Z,95.40
2018-12-07T00:38:54.829Z,95.50
2018-12-07T00:41:23.260Z,95.40
2018-12-07T00:43:51.761Z,95.30
2018-12-07T00:46:19.982Z,95.40
2018-12-07T00:48:48.217Z,95.40
2018-12-07T00:51:16.486Z,95.40
2018-12-07T00:53:44.705Z,95.40
2018-12-07T00:56:12.932Z,95.40
2018-12-07T00:58:41.119Z,95.40
2018-12-07T01:01:09.417Z,95.40
2018-12-07T01:03:37.669Z,95.10
2018-12-07T01:06:05.851Z,95.30
2018-12-07T01:08:34.145Z,95.30
2018-12-07T01:11:02.386Z,95.30
2018-12-07T01:13:30.553Z,95.30
2018-12-07T01:15:58.759Z,95.30
2018-12-07T01:18:26.916Z,95.20
2018-12-07T01:20:55.077Z,95.30
2018-12-07T01:23:23.288Z,95.20
2018-12-07T01:25:51.525Z,95.30
2018-12-07T01:28:19.700Z,95.30
2018-12-07T01:30:47.930Z,95.40
2018-12-07T01:33:16.152Z,95.30
2018-12-07T01:35:44.420Z,95.30
2018-12-07T01:38:12.649Z,95.40
2018-12-07T01:40:40.873Z,95.30
2018-12-07T01:43:09.051Z,95.30
2018-12-07T01:45:37.353Z,95.20
2018-12-07T01:48:05.600Z,95.20
2018-12-07T01:50:33.768Z,95.20
2018-12-07T01:53:01.981Z,95.20
2018-12-07T01:55:30.317Z,95.30
2018-12-07T01:57:58.497Z,95.20
2018-12-07T02:00:26.801Z,95.20
2018-12-07T02:02:55.049Z,95.20
2018-12-07T02:05:23.221Z,95.20
2018-12-07T02:07:51.423Z,95.20
2018-12-07T02:10:19.665Z,95.20
2018-12-07T02:12:47.841Z,95.10
2018-12-07T02:15:16.060Z,95.10
2018-12-07T02:17:44.215Z,95.10
2018-12-07T02:20:12.491Z,95.10
2018-12-07T02:22:40.777Z,95.10
2018-12-07T02:25:09.009Z,95.10
2018-12-07T02:27:42.733Z,95.10
2018-12-07T02:30:10.990Z,95.10
2018-12-07T02:32:39.279Z,95.10
2018-12-07T02:35:07.608Z,95.00
2018-12-07T02:37:35.926Z,95.30
2018-12-07T02:40:04.613Z,95.10
2018-12-07T02:42:32.813Z,95.20
2018-12-07T02:45:01.057Z,95.10
2018-12-07T02:47:29.365Z,95.20
2018-12-07T02:49:57.638Z,95.20
2018-12-07T02:52:25.984Z,95.00
2018-12-07T02:54:54.263Z,95.00
2018-12-07T02:57:22.538Z,95.10
2018-12-07T02:59:50.768Z,95.10
2018-12-07T03:02:18.944Z,95.10
2018-12-07T03:04:47.156Z,95.10
2018-12-07T03:07:15.290Z,95.10
2018-12-07T03:09:43.558Z,95.00
2018-12-07T03:12:11.769Z,95.00
2018-12-07T03:14:39.913Z,94.90
2018-12-07T03:17:08.094Z,94.50
2018-12-07T03:19:36.416Z,94.80
2018-12-07T03:22:04.641Z,94.80
2018-12-07T03:24:32.829Z,94.80
2018-12-07T03:27:01.112Z,94.80
2018-12-07T03:29:29.256Z,94.80
2018-12-07T03:31:57.433Z,94.90
2018-12-07T03:34:25.629Z,94.90
2018-12-07T03:36:53.773Z,95.00
2018-12-07T03:39:21.945Z,94.90
2018-12-07T03:41:50.157Z,94.90
2018-12-07T03:44:18.401Z,94.90
2018-12-07T03:46:46.677Z,95.00
2018-12-07T03:49:15.097Z,95.00
2018-12-07T03:51:43.233Z,95.10
2018-12-07T03:54:11.418Z,95.20
2018-12-07T03:56:40.629Z,95.30
2018-12-07T03:59:08.780Z,95.30
2018-12-07T04:01:37.052Z,95.30
2018-12-07T04:04:05.370Z,95.30
2018-12-07T04:06:33.617Z,95.30
2018-12-07T04:09:01.726Z,95.30
2018-12-07T04:11:29.909Z,95.30
2018-12-07T04:13:58.119Z,95.40
2018-12-07T04:16:26.392Z,95.40
2018-12-07T04:18:54.800Z,95.40
2018-12-07T04:21:22.950Z,95.40
2018-12-07T04:23:51.121Z,95.40
2018-12-07T04:26:19.261Z,95.40
2018-12-07T04:28:47.467Z,95.30
2018-12-07T04:31:15.746Z,95.30
2018-12-07T04:33:43.985Z,95.30
2018-12-07T04:36:12.193Z,95.60
2018-12-07T04:38:40.470Z,95.60
2018-12-07T04:41:08.778Z,95.30
2018-12-07T04:43:36.935Z,95.30
2018-12-07T04:46:05.192Z,95.40
2018-12-07T04:48:33.409Z,95.20
2018-12-07T04:51:01.545Z,95.30
2018-12-07T04:53:30.727Z,95.20
2018-12-07T04:55:59.045Z,95.20
2018-12-07T04:58:27.193Z,95.00
2018-12-07T05:00:55.361Z,95.10
2018-12-07T05:03:23.665Z,95.00
2018-12-07T05:05:51.811Z,95.00
2018-12-07T05:08:20.085Z,95.10
2018-12-07T05:10:48.301Z,95.00
2018-12-07T05:13:16.436Z,95.00
2018-12-07T05:15:44.610Z,95.00
2018-12-07T05:18:12.806Z,94.90
2018-12-07T05:20:40.989Z,94.90
2018-12-07T05:23:09.224Z,94.80
2018-12-07T05:25:37.429Z,94.70
2018-12-07T05:28:05.576Z,94.70
2018-12-07T05:30:33.763Z,94.80
2018-12-07T05:33:02.057Z,94.70
2018-12-07T05:35:30.193Z,94.80
2018-12-07T05:37:58.445Z,94.60
2018-12-07T05:40:26.677Z,94.70
2018-12-07T05:42:54.826Z,94.60
2018-12-07T05:45:22.994Z,94.40
2018-12-07T05:47:51.194Z,94.70
2018-12-07T05:50:19.333Z,94.70
2018-12-07T05:52:47.517Z,95.10
2018-12-07T05:55:15.836Z,94.70
2018-12-07T05:57:43.956Z,94.70
2018-12-07T06:00:12.138Z,94.70
2018-12-07T06:02:40.329Z,94.70
2018-12-07T06:05:08.728Z,94.70
2018-12-07T06:07:36.860Z,94.70
2018-12-07T06:10:05.174Z,94.80
2018-12-07T06:12:33.429Z,94.70
2018-12-07T06:15:01.577Z,94.70
2018-12-07T06:17:29.829Z,94.70
2018-12-07T06:19:57.943Z,94.70
2018-12-07T06:22:26.208Z,94.70
2018-12-07T06:24:54.413Z,94.60
2018-12-07T06:27:22.661Z,94.60
2018-12-07T06:29:50.861Z,94.50
2018-12-07T06:32:19.033Z,94.50
2018-12-07T06:34:47.172Z,94.90
2018-12-07T06:37:15.349Z,94.60
2018-12-07T06:39:43.617Z,94.50
2018-12-07T06:42:11.805Z,94.50
2018-12-07T06:44:39.980Z,94.60
2018-12-07T06:47:08.180Z,94.50
2018-12-07T06:49:36.428Z,94.50
2018-12-07T06:52:04.709Z,94.50
2018-12-07T06:54:32.896Z,94.40
2018-12-07T06:57:01.049Z,94.40
2018-12-07T06:59:29.214Z,94.40
2018-12-07T07:01:57.436Z,94.40
2018-12-07T07:04:25.565Z,94.30
2018-12-07T07:06:53.743Z,94.10
2018-12-07T07:09:21.941Z,93.90
2018-12-07T07:11:50.084Z,93.70
2018-12-07T07:14:18.261Z,93.80
2018-12-07T07:16:46.464Z,93.80
2018-12-07T07:19:14.665Z,93.80
2018-12-07T07:21:42.904Z,93.70
2018-12-07T07:24:11.127Z,93.70
2018-12-07T07:26:39.336Z,93.70
2018-12-07T07:29:07.505Z,93.90
2018-12-07T07:31:35.705Z,93.90
2018-12-07T07:34:03.853Z,93.80
2018-12-07T07:36:32.025Z,93.80
2018-12-07T07:39:00.225Z,93.70
2018-12-07T07:41:28.444Z,93.60
2018-12-07T07:43:56.664Z,93.70
2018-12-07T07:46:24.956Z,93.50
2018-12-07T07:48:53.282Z,93.40
2018-12-07T07:51:21.477Z,93.50
2018-12-07T07:53:49.674Z,93.50
2018-12-07T07:56:17.825Z,93.40
2018-12-07T07:58:45.992Z,93.40
2018-12-07T08:01:14.201Z,93.50
2018-12-07T08:03:42.341Z,93.30
2018-12-07T08:06:10.627Z,93.40
2018-12-07T08:08:38.937Z,93.30
2018-12-07T08:11:07.060Z,93.30
2018-12-07T08:13:35.236Z,93.20
2018-12-07T08:16:03.540Z,93.00
2018-12-07T08:18:31.703Z,92.90
2018-12-07T08:20:59.873Z,92.90
2018-12-07T08:23:28.061Z,92.70
2018-12-07T08:25:56.312Z,92.50
2018-12-07T08:28:24.581Z,92.50
2018-12-07T08:30:52.793Z,92.40
2018-12-07T08:33:20.938Z,92.00
2018-12-07T08:35:49.104Z,92.00
2018-12-07T08:38:17.304Z,91.70
2018-12-07T08:40:45.524Z,91.50
2018-12-07T08:43:13.636Z,91.00
2018-12-07T08:45:41.825Z,90.50
2018-12-07T08:48:09.971Z,90.30
2018-12-07T08:50:38.253Z,90.30
2018-12-07T08:53:06.457Z,88.60
2018-12-07T08:55:34.608Z,89.00
2018-12-07T08:58:02.865Z,88.70
2018-12-07T09:00:31.064Z,88.50
2018-12-07T09:02:59.217Z,88.60
2018-12-07T09:05:27.384Z,88.40
2018-12-07T09:07:55.597Z,88.60
2018-12-07T09:10:23.735Z,88.60
2018-12-07T09:12:52.014Z,88.40
2018-12-07T09:15:20.220Z,88.90
2018-12-07T09:17:48.889Z,88.90
2018-12-07T09:20:17.153Z,88.40
2018-12-07T09:22:45.364Z,88.20
2018-12-07T09:25:13.493Z,87.50
2018-12-07T09:27:41.665Z,88.00
2018-12-07T09:30:09.880Z,87.40
2018-12-07T09:32:38.016Z,85.60
2018-12-07T09:35:06.512Z,83.80
2018-12-07T09:37:34.695Z,81.50
2018-12-07T09:40:02.945Z,78.80
2018-12-07T09:42:31.120Z,75.30
2018-12-07T09:44:59.333Z,72.90
2018-12-07T09:47:27.465Z,73.20
2018-12-07T09:49:55.729Z,73.40
2018-12-07T09:52:24.041Z,73.30
2018-12-07T09:54:52.201Z,74.70
2018-12-07T09:57:20.356Z,75.10
2018-12-07T09:59:48.565Z,74.00
2018-12-07T10:02:16.705Z,71.80
2018-12-07T10:04:44.872Z,70.80
2018-12-07T10:07:13.088Z,71.90
2018-12-07T10:09:41.328Z,70.10
2018-12-07T10:12:09.564Z,72.20
2018-12-07T10:14:37.800Z,74.00
2018-12-07T10:17:05.958Z,74.10
2018-12-07T10:19:34.124Z,73.40
2018-12-07T10:22:03.790Z,74.20
2018-12-07T10:24:31.906Z,74.50
2018-12-07T10:27:06.221Z,75.80
2018-12-07T10:29:34.629Z,76.00
2018-12-07T10:32:02.780Z,75.90
2018-12-07T10:34:30.981Z,76.20
2018-12-07T10:36:59.229Z,77.90
2018-12-07T10:39:27.401Z,77.80
2018-12-07T10:41:55.612Z,78.30
2018-12-07T10:44:23.749Z,79.70
2018-12-07T10:46:52.036Z,79.00
2018-12-07T10:49:20.241Z,79.70
2018-12-07T10:51:48.377Z,79.20
2018-12-07T10:54:16.549Z,79.40
2018-12-07T10:56:44.744Z,79.30
2018-12-07T10:59:12.888Z,79.50
2018-12-07T11:01:46.532Z,79.80
2018-12-07T11:04:20.236Z,79.80
2018-12-07T11:06:53.728Z,80.10
2018-12-07T11:09:27.457Z,80.40
2018-12-07T11:12:01.096Z,81.00
2018-12-07T11:14:34.837Z,81.90
2018-12-07T11:17:08.434Z,81.60
2018-12-07T11:19:42.196Z,82.00
2018-12-07T11:22:16.081Z,82.50
2018-12-07T11:24:49.880Z,82.80
2018-12-07T11:27:23.521Z,82.60
2018-12-07T11:29:57.238Z,82.30
2018-12-07T11:33:31.373Z,82.30
2018-12-07T11:35:59.513Z,81.50
2018-12-07T11:38:27.689Z,81.90
2018-12-07T11:40:55.900Z,81.00
2018-12-07T11:43:24.033Z,80.70
2018-12-07T11:45:52.205Z,80.40
2018-12-07T11:48:20.415Z,81.30
2018-12-07T11:50:48.652Z,81.40
2018-12-07T11:53:16.832Z,81.00
2018-12-07T11:55:45.030Z,80.20
2018-12-07T11:58:13.184Z,79.90
2018-12-07T12:00:41.354Z,80.10
2018-12-07T12:03:09.577Z,80.20
2018-12-07T12:05:37.696Z,79.80
2018-12-07T12:08:05.869Z,79.80
2018-12-07T12:10:34.082Z,79.10
2018-12-07T12:13:02.316Z,79.70
2018-12-07T12:15:30.497Z,80.60
2018-12-07T12:17:58.696Z,78.90
2018-12-07T12:20:26.876Z,78.60
2018-12-07T12:22:55.205Z,78.00
2018-12-07T12:25:23.621Z,77.30
2018-12-07T12:27:51.769Z,77.60
2018-12-07T12:30:19.940Z,76.60
2018-12-07T12:32:48.140Z,76.00
2018-12-07T12:35:16.293Z,75.70
2018-12-07T12:37:44.460Z,75.60
2018-12-07T12:40:12.666Z,75.60
2018-12-07T12:42:40.812Z,75.80
2018-12-07T12:45:08.993Z,77.10
2018-12-07T12:47:37.188Z,75.80
2018-12-07T12:50:07.841Z,75.40
2018-12-07T12:52:35.958Z,75.50
2018-12-07T12:55:04.185Z,74.50
2018-12-07T12:57:32.415Z,74.20
2018-12-07T13:00:00.581Z,74.10
2018-12-07T13:02:28.885Z,73.90
2018-12-07T13:04:57.041Z,74.30
2018-12-07T13:07:25.208Z,74.90
2018-12-07T13:09:53.413Z,74.80
2018-12-07T13:12:21.569Z,75.50
2018-12-07T13:14:49.829Z,75.80
2018-12-07T13:17:18.025Z,76.30
2018-12-07T13:19:46.259Z,77.10
2018-12-07T13:22:14.449Z,77.50
2018-12-07T13:24:42.744Z,78.20
2018-12-07T13:27:12.701Z,77.30
2018-12-07T13:29:41.021Z,77.90
2018-12-07T13:32:09.325Z,78.60
2018-12-07T13:34:37.433Z,78.30
2018-12-07T13:37:05.641Z,78.60
2018-12-07T13:39:33.927Z,79.00
2018-12-07T13:42:02.130Z,79.50
2018-12-07T13:44:30.372Z,79.70
2018-12-07T13:46:58.771Z,79.00
2018-12-07T13:49:27.050Z,79.20
2018-12-07T13:51:55.314Z,79.20
2018-12-07T13:54:24.151Z,79.40
2018-12-07T13:56:52.473Z,79.50
2018-12-07T13:59:20.867Z,80.20
2018-12-07T14:01:49.232Z,79.80
2018-12-07T14:04:17.847Z,79.90
2018-12-07T14:06:46.128Z,79.90
2018-12-07T14:09:14.431Z,79.70
2018-12-07T14:11:42.642Z,80.50
2018-12-07T14:14:10.961Z,80.30
2018-12-07T14:16:39.388Z,80.80
2018-12-07T14:19:07.581Z,80.90
2018-12-07T14:21:35.881Z,80.50
2018-12-07T14:24:04.319Z,80.80
2018-12-07T14:26:32.589Z,80.90
2018-12-07T14:29:01.306Z,81.60
2018-12-07T14:31:30.222Z,81.40
2018-12-07T14:33:58.612Z,81.60
2018-12-07T14:36:27.098Z,81.60
2018-12-07T14:38:55.628Z,82.10
2018-12-07T14:41:24.024Z,82.60
2018-12-07T14:43:52.915Z,82.70
2018-12-07T14:46:21.433Z,82.90
2018-12-07T14:48:49.815Z,82.80
2018-12-07T14:51:18.201Z,83.30
2018-12-07T14:53:46.616Z,83.00
2018-12-07T14:56:14.977Z,83.10
2018-12-07T14:58:43.261Z,82.50
2018-12-07T15:01:11.639Z,82.30
2018-12-07T15:03:39.901Z,82.30
2018-12-07T15:06:08.177Z,82.70
2018-12-07T15:08:36.467Z,82.70
2018-12-07T15:11:05.065Z,82.70
2018-12-07T15:13:33.694Z,82.80
2018-12-07T15:16:02.236Z,83.30
2018-12-07T15:18:30.635Z,83.70
2018-12-07T15:20:59.261Z,83.70
2018-12-07T15:23:27.550Z,83.90
2018-12-07T15:25:56.236Z,83.80
2018-12-07T15:28:24.822Z,83.80
2018-12-07T15:30:53.261Z,84.50
2018-12-07T15:33:21.589Z,84.10
2018-12-07T15:35:49.824Z,84.80
2018-12-07T15:38:18.321Z,85.00
2018-12-07T15:40:46.690Z,85.60
2018-12-07T15:43:15.021Z,85.60
2018-12-07T15:45:43.220Z,85.70
2018-12-07T15:48:11.621Z,85.90
2018-12-07T15:50:39.969Z,85.90
2018-12-07T15:53:08.341Z,86.60
2018-12-07T15:55:36.638Z,85.90
2018-12-07T15:58:05.065Z,86.00
2018-12-07T16:00:33.362Z,87.10
2018-12-07T16:03:01.752Z,87.70
2018-12-07T16:05:30.028Z,88.50
2018-12-07T16:07:58.457Z,89.70
2018-12-07T16:10:26.971Z,89.70
2018-12-07T16:12:55.285Z,89.60
2018-12-07T16:15:23.668Z,90.30
2018-12-07T16:17:52.018Z,90.70
2018-12-07T16:20:20.772Z,90.50
2018-12-07T16:22:49.265Z,90.40
2018-12-07T16:25:17.663Z,90.60
2018-12-07T16:27:46.034Z,90.50
2018-12-07T16:30:15.850Z,90.70
2018-12-07T16:32:44.594Z,90.70
2018-12-07T16:35:12.990Z,90.70
2018-12-07T16:37:41.233Z,90.80
2018-12-07T16:40:09.496Z,90.70
2018-12-07T16:42:37.730Z,90.70
2018-12-07T16:45:06.168Z,90.60
2018-12-07T16:47:34.571Z,90.50
2018-12-07T16:50:02.935Z,90.50
2018-12-07T16:52:31.415Z,90.40
2018-12-07T16:54:59.704Z,90.40
2018-12-07T16:57:28.151Z,90.80
2018-12-07T16:59:56.477Z,90.60
2018-12-07T17:02:24.748Z,90.60
2018-12-07T17:04:53.409Z,90.60
2018-12-07T17:07:21.658Z,90.70
2018-12-07T17:09:49.876Z,90.70
2018-12-07T17:12:18.210Z,90.80
2018-12-07T17:14:46.478Z,90.90
2018-12-07T17:17:14.690Z,90.80
2018-12-07T17:19:42.963Z,91.00
2018-12-07T17:22:11.282Z,91.10
2018-12-07T17:24:39.462Z,91.10
2018-12-07T17:27:07.714Z,91.10
2018-12-07T17:29:36.038Z,91.20
2018-12-07T17:32:04.875Z,91.40
2018-12-07T17:34:33.177Z,91.20
2018-12-07T17:37:01.531Z,91.20
2018-12-07T17:39:29.870Z,91.10
2018-12-07T17:41:58.088Z,91.10
2018-12-07T17:44:26.520Z,91.20
2018-12-07T17:46:54.981Z,91.20
2018-12-07T17:49:23.304Z,91.30
2018-12-07T17:51:53.332Z,91.20
2018-12-07T17:54:21.725Z,91.20
2018-12-07T17:56:50.341Z,91.50
2018-12-07T17:59:18.886Z,91.20
2018-12-07T18:01:47.138Z,91.20
2018-12-07T18:04:15.345Z,91.30
2018-12-07T18:06:43.843Z,91.20
2018-12-07T18:09:12.466Z,91.20
2018-12-07T18:11:42.131Z,91.20
2018-12-07T18:14:11.665Z,91.20
2018-12-07T18:16:41.463Z,91.20
2018-12-07T18:19:10.058Z,91.20
2018-12-07T18:21:38.647Z,91.20
2018-12-07T18:24:06.841Z,91.30
2018-12-07T18:26:35.029Z,91.40
2018-12-07T18:29:03.544Z,91.40
2018-12-07T18:31:31.773Z,91.30
2018-12-07T18:34:00.102Z,91.20
2018-12-07T18:36:28.523Z,91.10
2018-12-07T18:38:56.863Z,91.10
2018-12-07T18:41:25.105Z,91.00
2018-12-07T18:43:53.411Z,91.00
2018-12-07T18:46:21.740Z,91.00
2018-12-07T18:48:50.019Z,90.80
2018-12-07T18:51:18.651Z,91.00
2018-12-07T18:53:47.120Z,90.80
2018-12-07T18:56:15.346Z,90.70
2018-12-07T18:58:44.073Z,90.60
2018-12-07T19:01:12.462Z,90.80
2018-12-07T19:03:40.937Z,91.00
2018-12-07T19:06:09.301Z,91.00
2018-12-07T19:08:37.697Z,91.20
2018-12-07T19:11:06.259Z,91.20
2018-12-07T19:13:34.857Z,91.10
2018-12-07T19:16:03.353Z,91.50
2018-12-07T19:18:31.600Z,91.20
2018-12-07T19:21:00.052Z,91.60
2018-12-07T19:23:28.500Z,91.50
2018-12-07T19:25:57.154Z,91.20
2018-12-07T19:28:25.577Z,91.20
2018-12-07T19:30:54.085Z,91.30
2018-12-07T19:33:22.379Z,91.70
2018-12-07T19:35:50.813Z,91.30
2018-12-07T19:38:19.257Z,91.30
2018-12-07T19:40:47.642Z,91.30
2018-12-07T19:43:15.989Z,91.40
2018-12-07T19:45:44.436Z,91.40
2018-12-07T19:48:12.786Z,91.30
2018-12-07T19:50:41.248Z,91.80
2018-12-07T19:53:09.481Z,91.60
2018-12-07T19:55:37.838Z,91.70
2018-12-07T19:58:06.186Z,92.00
2018-12-07T20:00:34.483Z,92.00
2018-12-07T20:03:02.968Z,92.20
2018-12-07T20:05:31.293Z,92.40
2018-12-07T20:07:59.692Z,92.60
2018-12-07T20:10:27.912Z,92.50
2018-12-07T20:12:56.136Z,92.50
2018-12-07T20:15:24.297Z,92.70
2018-12-07T20:17:52.873Z,92.70
2018-12-07T20:20:22.314Z,92.50
2018-12-07T20:22:50.612Z,92.70
2018-12-07T20:25:18.830Z,92.70
2018-12-07T20:27:47.202Z,92.70
2018-12-07T20:30:15.588Z,92.80
2018-12-07T20:32:44.083Z,92.90
2018-12-07T20:35:12.573Z,93.00
2018-12-07T20:37:40.870Z,93.00
2018-12-07T20:40:09.294Z,92.90
2018-12-07T20:42:37.585Z,93.00
2018-12-07T20:45:06.068Z,93.10
2018-12-07T20:47:34.516Z,93.30
2018-12-07T20:50:03.027Z,93.90
2018-12-07T20:52:31.397Z,93.60
2018-12-07T20:55:00.056Z,93.80
2018-12-07T20:57:28.397Z,93.90
2018-12-07T20:59:56.830Z,93.90
2018-12-07T21:02:25.432Z,93.90
2018-12-07T21:04:56.309Z,93.90
2018-12-07T21:07:42.949Z,93.90
2018-12-07T21:10:28.525Z,93.90
2018-12-07T21:13:39.257Z,94.10
2018-12-07T21:16:39.081Z,94.00
2018-12-07T21:19:07.638Z,93.80
2018-12-07T21:21:36.043Z,93.70
2018-12-07T21:24:04.379Z,93.70
2018-12-07T21:26:32.595Z,93.80
2018-12-07T21:29:01.157Z,93.50
2018-12-07T21:31:29.612Z,93.30
2018-12-07T21:35:05.121Z,93.40
2018-12-07T21:37:33.633Z,93.20
2018-12-07T21:40:16.211Z,93.00
2018-12-07T21:42:44.529Z,93.40
2018-12-07T21:45:12.951Z,93.00
2018-12-07T21:48:24.209Z,93.00
2018-12-07T21:53:06.623Z,92.70
2018-12-07T21:55:35.097Z,92.80
2018-12-07T21:58:03.686Z,92.70
2018-12-07T22:00:32.332Z,92.70
2018-12-07T22:03:02.139Z,92.60
2018-12-07T22:05:31.013Z,92.60
2018-12-07T22:07:59.729Z,92.80
2018-12-07T22:10:28.276Z,93.00
2018-12-07T22:12:56.805Z,93.10
2018-12-07T22:15:25.185Z,93.30
2018-12-07T22:17:53.812Z,93.60
2018-12-07T22:20:22.234Z,93.70
2018-12-07T22:22:50.461Z,93.60
2018-12-07T22:25:18.829Z,92.80
2018-12-07T22:27:47.155Z,91.80
2018-12-07T22:30:15.693Z,90.70
2018-12-07T22:32:44.455Z,91.30
2018-12-07T22:35:12.932Z,90.90
2018-12-07T22:37:41.489Z,91.20
2018-12-07T22:40:09.979Z,91.60
2018-12-07T22:42:38.178Z,91.20
2018-12-07T22:45:06.576Z,90.40
2018-12-07T22:47:35.143Z,90.80
2018-12-07T22:50:03.521Z,90.00
2018-12-07T22:52:31.660Z,88.90
2018-12-07T22:54:59.981Z,88.60
2018-12-07T22:57:28.098Z,88.00
2018-12-07T22:59:56.383Z,88.40
2018-12-07T23:02:24.581Z,88.30
2018-12-07T23:04:52.747Z,88.50
2018-12-07T23:07:21.038Z,88.70
2018-12-07T23:09:49.198Z,88.20
2018-12-07T23:12:17.348Z,88.40
2018-12-07T23:14:45.534Z,87.80
2018-12-07T23:17:13.728Z,88.40
2018-12-07T23:19:41.878Z,88.90
2018-12-07T23:22:10.046Z,88.80
2018-12-07T23:24:38.193Z,88.30
2018-12-07T23:27:06.392Z,88.30
2018-12-07T23:29:34.565Z,88.30
2018-12-07T23:32:02.760Z,87.90
2018-12-07T23:34:30.911Z,87.70
2018-12-07T23:36:59.085Z,88.00
2018-12-07T23:39:27.302Z,87.70
2018-12-07T23:41:55.437Z,87.20
2018-12-07T23:44:23.658Z,87.40
2018-12-07T23:46:51.808Z,87.50
2018-12-07T23:49:20.009Z,87.30
2018-12-07T23:51:52.137Z,87.00
2018-12-07T23:54:21.217Z,86.80
2018-12-07T23:56:49.373Z,86.00
2018-12-07T23:59:17.592Z,86.60
